Time;durP1;ratioP1;P1;durP2;ratioP2;P2;SDS_P1;SDS_P2;PMS_P1;PMS_P2;Temp;Humidity;BMP_temperature;BMP_pressure;BME280_temperature;BME280_humidity;BME280_pressure;Samples;Min_cycle;Max_cycle;Signal;HPM_P1;HPM_P2
2021/10/14 00:00:04;;;;;;;64.50;35.45;;;;;;;4.53;83.74;94799.85;1644935;86;21070;-58
2021/10/14 00:02:31;;;;;;;56.98;35.58;;;;;;;4.54;83.99;94797.31;1650805;85;21018;-55
2021/10/14 00:04:58;;;;;;;51.10;30.88;;;;;;;4.60;83.87;94804.45;1648036;86;21085;-56
2021/10/14 00:07:24;;;;;;;43.40;27.75;;;;;;;4.65;83.68;94808.86;1648920;86;21015;-57
2021/10/14 00:09:52;;;;;;;46.73;28.27;;;;;;;4.64;83.45;94799.11;1647802;86;21078;-62
2021/10/14 00:12:19;;;;;;;46.18;26.35;;;;;;;4.63;83.27;94800.30;1644097;86;21030;-56
2021/10/14 00:14:46;;;;;;;44.35;28.20;;;;;;;4.66;83.34;94809.05;1647529;86;20967;-57
2021/10/14 00:17:12;;;;;;;45.10;29.02;;;;;;;4.72;83.38;94803.31;1648908;86;21166;-57
2021/10/14 00:19:40;;;;;;;43.78;27.30;;;;;;;4.76;83.05;94809.48;1652167;87;21002;-57
2021/10/14 00:22:07;;;;;;;45.65;27.93;;;;;;;4.75;83.00;94808.55;1646827;86;20963;-57
2021/10/14 00:24:34;;;;;;;39.25;24.85;;;;;;;4.73;83.00;94816.33;1650412;86;20962;-57
2021/10/14 00:27:01;;;;;;;42.83;25.65;;;;;;;4.72;82.95;94814.22;1651175;86;21069;-57
2021/10/14 00:29:29;;;;;;;44.10;26.75;;;;;;;4.72;82.82;94816.94;1646932;85;21845;-57
2021/10/14 00:31:55;;;;;;;44.95;29.23;;;;;;;4.71;82.73;94816.76;1647683;86;21486;-57
2021/10/14 00:34:22;;;;;;;47.75;29.57;;;;;;;4.68;82.68;94816.22;1652033;86;21496;-57
2021/10/14 00:36:48;;;;;;;49.27;30.95;;;;;;;4.65;82.83;94813.52;1645631;86;21045;-56
2021/10/14 00:39:15;;;;;;;43.45;27.48;;;;;;;4.64;83.05;94811.98;1648574;85;20958;-57
2021/10/14 00:41:41;;;;;;;47.78;29.75;;;;;;;4.64;83.11;94813.34;1649060;87;21137;-57
2021/10/14 00:44:08;;;;;;;63.87;28.95;;;;;;;4.61;83.12;94812.80;1647524;86;21132;-62
2021/10/14 00:46:35;;;;;;;45.83;27.70;;;;;;;4.60;83.14;94816.70;1650782;86;20987;-57
2021/10/14 00:49:01;;;;;;;53.28;30.57;;;;;;;4.57;83.22;94819.64;1647984;86;21736;-57
2021/10/14 00:51:28;;;;;;;51.73;31.25;;;;;;;4.57;83.50;94818.89;1647598;86;21070;-57
2021/10/14 00:53:55;;;;;;;53.68;30.52;;;;;;;4.67;83.91;94818.77;1650399;86;21222;-57
2021/10/14 00:56:22;;;;;;;49.65;30.90;;;;;;;4.80;83.98;94818.39;1648880;86;21019;-57
2021/10/14 00:58:49;;;;;;;50.58;30.85;;;;;;;4.84;83.52;94820.50;1650060;86;21050;-57
2021/10/14 01:01:16;;;;;;;44.67;28.98;;;;;;;4.91;83.52;94823.70;1647767;86;20979;-58
2021/10/14 01:03:42;;;;;;;48.68;29.15;;;;;;;4.95;83.30;94823.84;1644501;86;20974;-57
2021/10/14 01:06:10;;;;;;;42.88;29.48;;;;;;;4.99;83.18;94824.56;1649823;86;21834;-57
2021/10/14 01:08:37;;;;;;;48.20;32.58;;;;;;;4.99;83.08;94825.17;1648819;87;21033;-55
2021/10/14 01:11:03;;;;;;;58.63;35.33;;;;;;;4.93;83.18;94828.94;1645928;87;21487;-57
2021/10/14 01:13:30;;;;;;;48.83;32.00;;;;;;;4.92;83.18;94830.12;1650290;86;21513;-57
2021/10/14 01:15:58;;;;;;;54.75;33.58;;;;;;;4.94;83.15;94823.66;1648907;87;21093;-56
2021/10/14 01:18:25;;;;;;;52.70;33.25;;;;;;;4.95;83.03;94829.30;1649865;86;21123;-56
2021/10/14 01:20:53;;;;;;;51.95;32.85;;;;;;;4.98;83.04;94824.38;1648798;87;21592;-56
2021/10/14 01:23:19;;;;;;;50.33;31.02;;;;;;;4.99;83.00;94825.92;1648183;86;21533;-57
2021/10/14 01:25:46;;;;;;;72.05;36.60;;;;;;;4.94;82.97;94823.66;1649958;86;20979;-57
2021/10/14 01:28:14;;;;;;;53.65;31.73;;;;;;;4.89;83.14;94824.70;1648136;87;20978;-57
2021/10/14 01:30:41;;;;;;;56.95;31.55;;;;;;;4.85;83.33;94826.13;1649025;87;21793;-57
2021/10/14 01:33:08;;;;;;;55.23;34.38;;;;;;;4.82;83.38;94828.28;1646830;86;21046;-56
2021/10/14 01:35:34;;;;;;;47.30;30.17;;;;;;;4.80;83.53;94832.01;1650055;86;20966;-58
2021/10/14 01:38:01;;;;;;;50.38;31.50;;;;;;;4.81;83.66;94828.10;1649551;86;21517;-56
2021/10/14 01:40:30;;;;;;;55.28;33.88;;;;;;;4.84;83.90;94827.31;1649196;85;21125;-56
2021/10/14 01:42:58;;;;;;;55.60;30.90;;;;;;;4.91;83.94;94831.30;1648842;86;22197;-56
2021/10/14 01:45:25;;;;;;;53.42;32.25;;;;;;;4.96;83.72;94826.75;1650105;86;20947;-55
2021/10/14 01:47:51;;;;;;;54.77;33.92;;;;;;;4.96;83.51;94833.56;1648308;86;21499;-56
2021/10/14 01:50:18;;;;;;;62.75;33.58;;;;;;;5.00;83.80;94840.34;1646580;87;21128;-56
2021/10/14 01:52:45;;;;;;;58.50;33.25;;;;;;;5.11;83.69;94834.17;1649397;85;20952;-56
2021/10/14 01:55:11;;;;;;;58.52;34.30;;;;;;;5.17;83.37;94834.64;1646836;86;21945;-56
2021/10/14 01:57:38;;;;;;;56.42;36.30;;;;;;;5.22;83.38;94839.66;1649909;86;21041;-56
2021/10/14 02:00:07;;;;;;;56.08;34.83;;;;;;;5.24;83.16;94840.02;1648643;86;21027;-58
2021/10/14 02:02:36;;;;;;;48.73;29.25;;;;;;;5.30;83.06;94847.91;1650209;85;20970;-56
2021/10/14 02:05:05;;;;;;;49.08;30.57;;;;;;;5.27;82.68;94848.73;1650035;86;21156;-57
2021/10/14 02:07:33;;;;;;;46.90;28.17;;;;;;;5.19;82.63;94848.64;1622694;86;21171;-56
2021/10/14 02:09:59;;;;;;;51.92;31.57;;;;;;;5.17;82.81;94846.91;1649628;86;21006;-57
2021/10/14 02:12:26;;;;;;;53.90;31.75;;;;;;;5.20;82.92;94852.94;1645725;86;21081;-57
2021/10/14 02:14:53;;;;;;;47.40;30.00;;;;;;;5.22;82.88;94858.75;1647108;87;21007;-57
2021/10/14 02:17:20;;;;;;;44.30;28.98;;;;;;;5.22;82.69;94855.23;1648237;87;21525;-58
2021/10/14 02:19:46;;;;;;;45.70;30.40;;;;;;;5.17;82.52;94856.46;1648900;87;21204;-56
2021/10/14 02:22:13;;;;;;;55.80;29.57;;;;;;;5.12;82.76;94854.20;1648937;87;20967;-57
2021/10/14 02:24:40;;;;;;;58.73;31.17;;;;;;;5.13;82.61;94855.73;1648877;87;20999;-57
2021/10/14 02:27:06;;;;;;;50.98;31.45;;;;;;;5.09;82.64;94858.33;1649029;87;20974;-56
2021/10/14 02:29:33;;;;;;;53.38;32.03;;;;;;;5.04;82.76;94862.30;1647096;87;21041;-57
2021/10/14 02:32:00;;;;;;;55.83;32.15;;;;;;;5.05;82.92;94859.75;1646481;86;21805;-56
2021/10/14 02:34:26;;;;;;;56.65;33.23;;;;;;;5.05;82.97;94861.11;1640262;85;21051;-58
2021/10/14 02:36:53;;;;;;;57.78;31.52;;;;;;;5.11;83.28;94869.02;1624066;88;21561;-57
2021/10/14 02:39:20;;;;;;;54.55;32.05;;;;;;;5.16;82.93;94857.64;1626920;87;21028;-57
2021/10/14 02:41:46;;;;;;;51.90;31.90;;;;;;;5.17;82.82;94860.55;1622078;86;20981;-57
2021/10/14 02:44:13;;;;;;;53.15;33.02;;;;;;;5.18;82.89;94867.55;1622847;86;21989;-58
2021/10/14 02:46:39;;;;;;;55.28;33.48;;;;;;;5.23;82.98;94861.66;1612645;87;21076;-59
2021/10/14 02:49:07;;;;;;;47.60;32.48;;;;;;;5.29;82.80;94868.19;1616605;87;21077;-58
2021/10/14 02:51:34;;;;;;;47.60;30.32;;;;;;;5.31;82.49;94873.42;1625496;87;21104;-57
2021/10/14 02:54:01;;;;;;;45.78;29.75;;;;;;;5.28;82.16;94874.83;1617671;87;21505;-57
2021/10/14 02:56:28;;;;;;;47.70;27.98;;;;;;;5.19;82.11;94871.81;1615399;88;21116;-57
2021/10/14 02:58:54;;;;;;;44.20;28.67;;;;;;;5.13;82.08;94877.55;1624584;87;20961;-57
2021/10/14 03:01:21;;;;;;;46.08;28.80;;;;;;;5.07;82.47;94886.02;1616298;87;21066;-57
2021/10/14 03:03:48;;;;;;;49.75;29.32;;;;;;;5.02;82.48;94889.20;1619417;87;21465;-57
2021/10/14 03:06:15;;;;;;;48.23;29.72;;;;;;;4.94;82.46;94890.45;1620867;87;21458;-56
2021/10/14 03:08:42;;;;;;;47.17;30.05;;;;;;;4.87;82.60;94890.54;1623040;87;21043;-56
2021/10/14 03:11:08;;;;;;;55.83;30.75;;;;;;;4.82;82.66;94900.50;1624437;88;21218;-55
2021/10/14 03:13:35;;;;;;;51.80;30.30;;;;;;;4.78;82.74;94901.14;1618307;88;20989;-56
2021/10/14 03:16:04;;;;;;;44.53;28.87;;;;;;;4.79;82.76;94900.56;1625245;88;21108;-56
2021/10/14 03:18:32;;;;;;;51.00;30.10;;;;;;;4.81;82.94;94909.10;1621939;87;21029;-56
2021/10/14 03:20:59;;;;;;;64.25;35.35;;;;;;;4.87;83.09;94904.74;1628181;88;21154;-56
2021/10/14 03:23:27;;;;;;;51.25;31.73;;;;;;;4.95;83.17;94906.23;1617143;87;21141;-56
2021/10/14 03:25:53;;;;;;;56.70;32.38;;;;;;;5.01;82.68;94906.70;1616899;87;20969;-57
2021/10/14 03:28:20;;;;;;;64.20;33.08;;;;;;;5.03;82.47;94913.91;1613978;87;21647;-57
2021/10/14 03:30:47;;;;;;;52.48;31.97;;;;;;;5.06;82.25;94912.30;1624497;87;21468;-57
2021/10/14 03:33:14;;;;;;;42.20;29.42;;;;;;;5.07;81.91;94914.64;1622591;88;21944;-57
2021/10/14 03:35:40;;;;;;;46.00;29.32;;;;;;;5.06;81.87;94920.48;1623141;86;21256;-56
2021/10/14 03:38:07;;;;;;;41.00;28.42;;;;;;;5.05;81.90;94923.03;1622684;88;20969;-56
2021/10/14 03:40:34;;;;;;;39.23;27.45;;;;;;;5.02;81.82;94920.55;1623901;87;20997;-56
2021/10/14 03:43:00;;;;;;;42.70;26.85;;;;;;;5.00;81.91;94922.13;1615733;87;21548;-56
2021/10/14 03:45:27;;;;;;;44.53;24.72;;;;;;;5.01;81.80;94929.88;1624629;87;21498;-56
2021/10/14 03:47:54;;;;;;;53.70;28.02;;;;;;;5.02;81.69;94921.91;1623529;87;21470;-60
2021/10/14 03:50:20;;;;;;;57.67;31.40;;;;;;;5.00;81.92;94924.85;1623058;88;21595;-56
2021/10/14 03:52:48;;;;;;;46.35;30.30;;;;;;;5.02;82.44;94923.28;1613687;87;20997;-56
2021/10/14 03:55:14;;;;;;;60.70;30.37;;;;;;;5.08;82.50;94930.39;1623382;87;21038;-57
2021/10/14 03:57:41;;;;;;;50.55;27.30;;;;;;;5.10;82.32;94926.66;1614225;87;21106;-56
2021/10/14 04:00:10;;;;;;;45.15;26.73;;;;;;;5.07;82.07;94931.00;1619104;86;21592;-57
2021/10/14 04:02:38;;;;;;;45.95;24.45;;;;;;;5.02;82.10;94926.00;1624829;87;21591;-58
2021/10/14 04:05:05;;;;;;;43.60;25.95;;;;;;;5.01;82.01;94929.12;1622499;87;21032;-56
2021/10/14 04:07:32;;;;;;;49.67;25.55;;;;;;;4.99;82.04;94932.84;1620815;87;21081;-57
2021/10/14 04:09:59;;;;;;;52.78;25.68;;;;;;;5.00;82.19;94924.85;1625284;87;21847;-57
2021/10/14 04:12:26;;;;;;;40.90;23.65;;;;;;;5.00;82.11;94931.06;1628014;87;20958;-57
2021/10/14 04:14:53;;;;;;;40.12;25.45;;;;;;;4.96;82.20;94935.78;1616516;87;21062;-57
2021/10/14 04:17:20;;;;;;;40.80;25.85;;;;;;;4.94;82.49;94936.78;1614313;87;21545;-56
2021/10/14 04:19:47;;;;;;;39.35;25.25;;;;;;;4.97;82.69;94933.24;1620257;87;21014;-57
2021/10/14 04:22:14;;;;;;;41.50;25.75;;;;;;;5.03;82.69;94935.73;1620261;88;21175;-57
2021/10/14 04:24:41;;;;;;;45.30;27.98;;;;;;;5.07;82.64;94935.09;1615574;87;21077;-57
2021/10/14 04:27:08;;;;;;;42.15;27.50;;;;;;;5.08;82.59;94931.18;1625463;87;21540;-58
2021/10/14 04:29:35;;;;;;;47.70;28.38;;;;;;;5.07;82.63;94939.17;1621416;87;20986;-57
2021/10/14 04:32:05;;;;;;;48.60;28.20;;;;;;;5.11;82.77;94939.91;1623770;86;21102;-57
2021/10/14 04:34:32;;;;;;;74.27;32.20;;;;;;;5.17;82.92;94947.81;1624842;87;21175;-56
2021/10/14 04:36:58;;;;;;;67.55;36.40;;;;;;;5.23;82.70;94948.92;1618708;87;21222;-57
2021/10/14 04:39:25;;;;;;;74.05;41.68;;;;;;;5.31;82.68;94947.65;1622811;87;21018;-56
2021/10/14 04:41:51;;;;;;;63.92;37.93;;;;;;;5.37;82.31;94951.45;1615498;87;21177;-57
2021/10/14 04:44:18;;;;;;;65.37;36.73;;;;;;;5.33;82.13;94954.25;1617426;88;21092;-57
2021/10/14 04:46:46;;;;;;;62.48;33.53;;;;;;;5.31;82.13;94954.47;1617723;87;21441;-57
2021/10/14 04:49:12;;;;;;;53.38;34.38;;;;;;;5.30;82.02;94963.83;1618121;87;21021;-58
2021/10/14 04:51:39;;;;;;;71.07;37.08;;;;;;;5.26;82.07;94970.68;1621257;88;21548;-57
2021/10/14 04:54:05;;;;;;;60.03;34.85;;;;;;;5.28;82.42;94967.56;1626778;87;20977;-57
2021/10/14 04:56:32;;;;;;;86.42;49.50;;;;;;;5.38;82.47;94973.48;1629045;86;21009;-57
2021/10/14 04:58:59;;;;;;;96.42;57.55;;;;;;;5.46;82.18;94974.94;1623343;87;21159;-57
2021/10/14 05:01:25;;;;;;;109.40;65.50;;;;;;;5.45;81.90;94978.84;1621835;88;20968;-59
2021/10/14 05:03:52;;;;;;;103.05;57.75;;;;;;;5.46;82.00;94989.34;1618343;87;20996;-58
2021/10/14 05:06:18;;;;;;;107.50;57.80;;;;;;;5.48;82.04;94981.55;1621872;88;21126;-57
2021/10/14 05:08:45;;;;;;;104.17;58.40;;;;;;;5.55;81.96;94988.84;1626195;87;20981;-59
2021/10/14 05:11:13;;;;;;;115.42;63.73;;;;;;;5.64;81.69;94997.32;1621668;87;21087;-58
2021/10/14 05:13:40;;;;;;;112.15;61.15;;;;;;;5.69;81.66;94994.13;1626879;87;21068;-56
2021/10/14 05:16:07;;;;;;;89.90;50.90;;;;;;;5.75;81.51;94989.78;1619891;86;20993;-57
2021/10/14 05:18:34;;;;;;;76.12;43.10;;;;;;;5.76;81.41;94987.98;1628289;87;21473;-57
2021/10/14 05:21:01;;;;;;;55.55;35.78;;;;;;;5.77;81.18;94997.72;1624704;87;21072;-58
2021/10/14 05:23:28;;;;;;;50.95;32.67;;;;;;;5.72;81.12;95000.13;1625231;87;21143;-58
2021/10/14 05:25:56;;;;;;;43.05;27.62;;;;;;;5.67;81.19;95000.59;1620346;87;21001;-56
2021/10/14 05:28:23;;;;;;;45.03;28.07;;;;;;;5.66;81.48;95005.87;1626402;87;20976;-57
2021/10/14 05:30:49;;;;;;;52.00;32.40;;;;;;;5.65;81.46;94998.87;1622082;87;21085;-58
2021/10/14 05:33:16;;;;;;;57.45;35.28;;;;;;;5.62;81.61;94999.69;1628166;87;21126;-58
2021/10/14 05:35:43;;;;;;;63.25;36.73;;;;;;;5.59;81.71;94997.78;1618865;87;21627;-59
2021/10/14 05:38:10;;;;;;;66.60;36.95;;;;;;;5.63;82.12;95010.18;1620959;87;21097;-59
2021/10/14 05:40:37;;;;;;;55.60;36.55;;;;;;;5.71;82.15;95010.86;1622384;87;21056;-57
2021/10/14 05:43:03;;;;;;;63.95;37.75;;;;;;;5.82;81.85;95017.00;1620844;86;20989;-58
2021/10/14 05:45:30;;;;;;;59.58;36.35;;;;;;;5.85;81.52;95018.33;1627582;87;21080;-58
2021/10/14 05:47:57;;;;;;;50.00;36.00;;;;;;;5.89;81.44;95015.53;1624186;87;21135;-58
2021/10/14 05:50:24;;;;;;;53.98;36.05;;;;;;;5.94;81.64;95015.09;1613789;87;21002;-59
2021/10/14 05:52:51;;;;;;;46.37;31.30;;;;;;;6.01;81.42;95014.98;1631574;85;21066;-58
2021/10/14 05:55:18;;;;;;;65.22;33.50;;;;;;;6.08;81.23;95017.61;1633387;87;21121;-59
2021/10/14 05:57:45;;;;;;;47.85;28.52;;;;;;;6.11;80.98;95014.05;1626348;87;20978;-59
2021/10/14 06:00:14;;;;;;;46.70;31.15;;;;;;;6.12;80.63;95021.09;1636755;86;21157;-62
2021/10/14 06:02:41;;;;;;;43.73;29.80;;;;;;;6.10;80.61;95016.61;1623916;87;21068;-58
2021/10/14 06:05:09;;;;;;;45.95;31.85;;;;;;;6.12;80.56;95029.28;1622383;87;21580;-58
2021/10/14 06:07:36;;;;;;;54.75;34.43;;;;;;;6.11;80.49;95027.70;1619443;87;21002;-57
2021/10/14 06:10:06;;;;;;;52.80;34.48;;;;;;;6.13;80.42;95037.66;1631983;86;20978;-59
2021/10/14 06:12:35;;;;;;;55.28;34.27;;;;;;;6.17;80.49;95027.45;1633224;86;21165;-58
2021/10/14 06:15:02;;;;;;;46.05;30.02;;;;;;;6.24;80.45;95038.27;1625528;87;21043;-58
2021/10/14 06:17:30;;;;;;;38.85;26.35;;;;;;;6.28;80.21;95036.25;1633487;87;21022;-58
2021/10/14 06:19:56;;;;;;;44.40;30.12;;;;;;;6.35;80.35;95041.02;1631954;87;21022;-58
2021/10/14 06:22:23;;;;;;;49.58;30.52;;;;;;;6.43;80.04;95038.95;1629368;87;21005;-59
2021/10/14 06:24:50;;;;;;;40.40;28.80;;;;;;;6.47;80.07;95042.41;1619911;88;21135;-58
2021/10/14 06:27:16;;;;;;;42.83;29.27;;;;;;;6.48;80.00;95040.64;1627987;86;21093;-62
2021/10/14 06:29:43;;;;;;;39.85;27.35;;;;;;;6.50;80.05;95042.36;1633374;86;21112;-59
2021/10/14 06:32:10;;;;;;;41.65;27.27;;;;;;;6.55;80.17;95045.98;1633936;87;21066;-58
2021/10/14 06:34:36;;;;;;;30.23;23.30;;;;;;;6.60;79.98;95048.84;1630259;86;21041;-58
2021/10/14 06:37:03;;;;;;;34.80;23.35;;;;;;;6.69;79.84;95047.75;1620382;87;21307;-59
2021/10/14 06:39:30;;;;;;;33.30;23.12;;;;;;;6.79;79.83;95048.16;1631476;86;21023;-60
2021/10/14 06:42:00;;;;;;;36.17;23.42;;;;;;;6.96;79.58;95046.52;1633368;87;20969;-59
2021/10/14 06:44:25;;;;;;;43.75;25.37;;;;;;;7.12;78.85;95045.27;1630583;87;21033;-59
2021/10/14 06:46:54;;;;;;;34.67;23.90;;;;;;;7.17;78.16;95043.41;1631152;86;21086;-59
2021/10/14 06:49:21;;;;;;;40.25;25.50;;;;;;;7.18;77.75;95054.52;1624822;87;21171;-57
2021/10/14 06:51:48;;;;;;;53.13;25.62;;;;;;;7.16;77.35;95045.97;1626857;86;21153;-58
2021/10/14 06:54:15;;;;;;;43.70;26.17;;;;;;;7.16;77.01;95047.33;1632302;87;21475;-59
2021/10/14 06:56:44;;;;;;;43.73;29.30;;;;;;;7.11;76.92;95051.31;1630182;87;21031;-58
2021/10/14 06:59:10;;;;;;;55.38;32.95;;;;;;;7.12;77.10;95051.48;1633225;86;20990;-59
2021/10/14 07:01:37;;;;;;;40.25;28.73;;;;;;;7.17;76.93;95057.84;1618042;87;21147;-59
2021/10/14 07:04:04;;;;;;;39.48;26.55;;;;;;;7.20;76.76;95054.30;1620709;87;21016;-60
2021/10/14 07:06:31;;;;;;;35.25;23.65;;;;;;;7.20;76.61;95054.87;1629951;87;21510;-58
2021/10/14 07:08:58;;;;;;;26.60;18.20;;;;;;;7.17;76.43;95051.61;1634236;87;21060;-61
2021/10/14 07:11:32;;;;;;;36.70;24.55;;;;;;;7.18;76.35;95047.69;1628040;86;20978;-60
2021/10/14 07:14:00;;;;;;;47.85;33.05;;;;;;;7.19;76.24;95052.72;1620838;87;21105;-59
2021/10/14 07:16:27;;;;;;;46.35;28.30;;;;;;;7.22;76.27;95043.70;1630961;86;20974;-60
2021/10/14 07:18:54;;;;;;;56.80;39.08;;;;;;;7.25;76.39;95044.23;1632056;86;21065;-60
2021/10/14 07:21:21;;;;;;;53.98;35.78;;;;;;;7.20;76.17;95041.98;1631382;87;21034;-60
2021/10/14 07:23:48;;;;;;;49.73;33.48;;;;;;;7.20;76.38;95041.98;1624648;86;21784;-59
2021/10/14 07:26:15;;;;;;;43.90;28.65;;;;;;;7.26;76.52;95041.67;1631538;86;21841;-58
2021/10/14 07:28:41;;;;;;;48.52;31.52;;;;;;;7.42;76.31;95039.03;1633883;86;21065;-59
2021/10/14 07:31:08;;;;;;;45.92;26.73;;;;;;;7.56;75.86;95030.53;1635576;86;20970;-61
2021/10/14 07:33:36;;;;;;;28.80;20.72;;;;;;;7.66;75.31;95043.25;1632586;87;21455;-61
2021/10/14 07:36:06;;;;;;;32.33;22.30;;;;;;;7.72;74.72;95039.43;1635832;85;21053;-63
2021/10/14 07:38:32;;;;;;;42.25;23.27;;;;;;;7.80;74.18;95039.45;1647306;85;21143;-63
2021/10/14 07:40:59;;;;;;;36.30;22.93;;;;;;;7.83;73.63;95038.02;1625013;85;21488;-60
2021/10/14 07:43:26;;;;;;;30.68;19.62;;;;;;;7.85;73.26;95034.88;1668323;85;21062;-59
2021/10/14 07:46:00;;;;;;;33.85;22.62;;;;;;;7.82;72.87;95040.59;1676155;85;21121;-61
2021/10/14 07:48:28;;;;;;;35.63;24.80;;;;;;;7.79;72.60;95041.43;1673723;85;21094;-58
2021/10/14 07:50:55;;;;;;;45.52;26.70;;;;;;;7.79;72.61;95045.54;1671465;85;21556;-60
2021/10/14 07:53:22;;;;;;;33.30;23.20;;;;;;;7.78;72.70;95046.73;1666583;85;21491;-60
2021/10/14 07:55:50;;;;;;;47.55;29.67;;;;;;;7.81;72.63;95039.63;1649302;85;21031;-60
2021/10/14 07:58:18;;;;;;;39.95;23.55;;;;;;;7.86;72.55;95041.28;1644320;86;21058;-60
2021/10/14 08:00:45;;;;;;;35.55;21.15;;;;;;;7.87;72.13;95033.84;1638323;86;21098;-60
2021/10/14 08:03:12;;;;;;;33.23;20.10;;;;;;;7.85;71.81;95034.26;1628556;86;21141;-60
2021/10/14 08:05:40;;;;;;;40.85;23.87;;;;;;;7.83;71.64;95038.60;1632695;87;21088;-62
2021/10/14 08:08:07;;;;;;;41.92;23.70;;;;;;;7.79;71.51;95034.59;1635359;86;21526;-61
2021/10/14 08:10:34;;;;;;;30.80;19.80;;;;;;;7.77;71.39;95042.45;1619501;85;21145;-61
2021/10/14 08:13:01;;;;;;;24.90;16.00;;;;;;;7.75;71.22;95043.48;1620998;87;21485;-60
2021/10/14 08:15:27;;;;;;;44.10;27.87;;;;;;;7.73;71.21;95042.34;1621589;87;21155;-60
2021/10/14 08:17:55;;;;;;;43.73;28.20;;;;;;;7.71;71.44;95047.47;1621430;87;21077;-63
2021/10/14 08:20:22;;;;;;;40.95;29.27;;;;;;;7.78;71.90;95049.47;1606697;87;21029;-58
2021/10/14 08:22:50;;;;;;;44.45;26.35;;;;;;;7.99;72.11;95053.15;1640224;87;21006;-58
2021/10/14 08:25:16;;;;;;;34.85;22.20;;;;;;;8.22;71.73;95050.33;1647789;86;21024;-60
2021/10/14 08:27:44;;;;;;;24.00;16.30;;;;;;;8.44;71.45;95048.66;1649267;86;21136;-68
2021/10/14 08:30:13;;;;;;;30.88;17.25;;;;;;;8.71;70.13;95052.56;1648762;87;21066;-62
2021/10/14 08:32:42;;;;;;;27.87;15.55;;;;;;;8.92;69.72;95049.47;1648776;87;20983;-61
2021/10/14 08:35:10;;;;;;;30.65;17.48;;;;;;;9.15;67.79;95051.28;1649024;87;21093;-61
2021/10/14 08:37:37;;;;;;;29.37;14.80;;;;;;;9.37;67.22;95052.27;1648936;87;20979;-61
2021/10/14 08:40:06;;;;;;;21.80;13.60;;;;;;;9.54;66.36;95051.83;1648950;87;21427;-62
2021/10/14 08:42:33;;;;;;;25.72;16.23;;;;;;;9.70;65.81;95042.77;1645648;86;21573;-61
2021/10/14 08:45:05;;;;;;;21.17;15.68;;;;;;;9.83;65.19;95046.33;1645722;87;21573;-63
2021/10/14 08:47:34;;;;;;;30.02;16.75;;;;;;;9.93;65.30;95043.88;1646879;86;21452;-61
2021/10/14 08:50:01;;;;;;;20.00;15.03;;;;;;;10.05;64.20;95041.22;1625827;87;21043;-61
2021/10/14 08:52:28;;;;;;;22.48;14.98;;;;;;;10.19;63.94;95044.16;1649004;85;21144;-60
2021/10/14 08:54:56;;;;;;;22.67;15.93;;;;;;;10.26;63.93;95041.19;1631832;86;20975;-59
2021/10/14 08:57:23;;;;;;;29.10;18.67;;;;;;;10.39;63.36;95044.11;1649077;86;21554;-60
2021/10/14 08:59:50;;;;;;;21.02;14.83;;;;;;;10.58;63.18;95041.01;1630083;87;21070;-60
2021/10/14 09:02:18;;;;;;;27.60;18.35;;;;;;;10.81;62.49;95047.71;1653132;86;20974;-61
2021/10/14 09:04:56;;;;;;;20.48;14.05;;;;;;;11.11;60.90;95043.02;1649459;85;21321;-60
2021/10/14 09:07:24;;;;;;;24.30;12.07;;;;;;;11.33;59.40;95045.23;1649004;86;21070;-60
2021/10/14 09:09:51;;;;;;;29.45;20.15;;;;;;;11.44;56.94;95037.39;1622042;86;21068;-63
2021/10/14 09:12:20;;;;;;;18.92;14.55;;;;;;;11.49;57.46;95032.68;1612481;88;21017;-61
2021/10/14 09:15:13;;;;;;;18.62;11.83;;;;;;;11.68;57.99;95038.54;1617830;87;21053;-60
2021/10/14 09:17:50;;;;;;;17.40;13.10;;;;;;;11.89;57.52;95032.27;1606224;88;21024;-60
2021/10/14 09:20:29;;;;;;;16.30;11.83;;;;;;;12.07;57.24;95039.92;1617932;88;20998;-62
2021/10/14 09:23:04;;;;;;;15.98;12.20;;;;;;;12.19;56.08;95038.47;1614045;87;20992;-60
2021/10/14 09:25:41;;;;;;;16.52;12.13;;;;;;;12.36;55.16;95038.42;1594942;88;21028;-60
2021/10/14 09:28:15;;;;;;;24.45;13.78;;;;;;;12.60;54.11;95032.56;1593917;88;20989;-61
2021/10/14 09:31:04;;;;;;;22.82;11.53;;;;;;;12.86;53.42;95035.30;1593312;89;21159;-60
2021/10/14 09:33:46;;;;;;;13.28;10.88;;;;;;;13.14;54.08;95041.88;1594307;88;21105;-60
2021/10/14 09:36:28;;;;;;;11.20;9.63;;;;;;;13.54;53.00;95040.41;1594428;89;21532;-60
2021/10/14 09:39:03;;;;;;;15.75;9.85;;;;;;;13.89;52.24;95047.20;1595273;88;20989;-60
2021/10/14 09:41:40;;;;;;;11.83;9.78;;;;;;;14.30;49.53;95045.20;1593246;88;21008;-61
2021/10/14 09:44:12;;;;;;;9.10;8.20;;;;;;;14.77;49.04;95048.93;1589799;90;21185;-60
2021/10/14 09:46:50;;;;;;;9.85;8.03;;;;;;;15.33;47.02;95044.27;1584550;90;21033;-60
2021/10/14 09:49:28;;;;;;;14.90;9.18;;;;;;;15.86;45.19;95035.45;1587809;90;21049;-61
2021/10/14 09:51:57;;;;;;;8.25;7.25;;;;;;;16.25;44.16;95041.78;1587565;90;21127;-60
2021/10/14 09:54:24;;;;;;;8.88;7.83;;;;;;;16.55;44.04;95033.02;1580371;90;21481;-61
2021/10/14 09:56:51;;;;;;;11.73;8.45;;;;;;;16.95;43.61;95031.81;1573738;90;21158;-61
2021/10/14 09:59:18;;;;;;;11.55;8.98;;;;;;;17.37;41.81;95030.83;1647760;85;21056;-60
2021/10/14 10:01:48;;;;;;;12.47;10.28;;;;;;;17.49;40.92;95033.92;1617021;87;21552;-60
2021/10/14 10:04:15;;;;;;;18.85;9.68;;;;;;;17.38;40.51;95033.75;1622257;87;21481;-60
2021/10/14 10:06:42;;;;;;;10.30;8.30;;;;;;;17.35;40.53;95036.12;1618019;87;21513;-61
2021/10/14 10:09:15;;;;;;;10.53;8.60;;;;;;;17.48;40.17;95033.14;1624446;88;21877;-61
2021/10/14 10:11:49;;;;;;;10.03;7.67;;;;;;;17.68;39.62;95031.78;1624379;88;21096;-62
2021/10/14 10:14:16;;;;;;;15.98;8.05;;;;;;;17.79;39.07;95031.19;1613433;87;21317;-61
2021/10/14 10:16:56;;;;;;;13.40;9.05;;;;;;;17.87;38.02;95030.89;1623057;88;21001;-61
2021/10/14 10:19:49;;;;;;;8.40;7.12;;;;;;;18.01;37.85;95019.67;1618834;87;21047;-61
2021/10/14 10:22:40;;;;;;;22.42;9.05;;;;;;;18.41;36.85;95027.39;1620634;87;21152;-60
2021/10/14 10:25:28;;;;;;;19.45;8.98;;;;;;;18.92;37.05;95021.02;1615898;87;20993;-61
2021/10/14 10:28:01;;;;;;;8.43;7.08;;;;;;;19.51;36.29;95017.19;1625579;87;21032;-61
2021/10/14 10:30:37;;;;;;;7.78;6.37;;;;;;;20.06;34.61;95021.69;1618664;87;21005;-63
2021/10/14 10:33:06;;;;;;;11.38;7.53;;;;;;;20.36;33.96;95011.64;1618954;87;20985;-60
2021/10/14 10:35:46;;;;;;;18.35;7.78;;;;;;;20.65;33.45;95006.98;1595084;88;21151;-59
2021/10/14 10:38:16;;;;;;;27.13;7.90;;;;;;;20.88;32.56;95008.56;1607305;87;21045;-60
2021/10/14 10:40:45;;;;;;;13.43;7.70;;;;;;;21.09;32.74;95004.28;1624726;88;21024;-62
2021/10/14 10:43:22;;;;;;;14.05;9.15;;;;;;;21.49;32.42;95000.92;1617344;87;21065;-61
2021/10/14 10:45:54;;;;;;;17.70;8.03;;;;;;;21.67;31.51;94997.61;1624196;87;21627;-59
2021/10/14 10:48:43;;;;;;;12.68;10.58;;;;;;;21.21;31.64;94991.78;1623349;87;21255;-59
2021/10/14 10:51:28;;;;;;;15.80;9.68;;;;;;;20.48;32.25;94995.02;1613766;87;21100;-65
2021/10/14 10:53:55;;;;;;;14.07;6.97;;;;;;;19.44;33.11;94998.74;1612882;87;21033;-60
2021/10/14 10:56:33;;;;;;;11.03;8.65;;;;;;;18.44;34.74;94995.75;1619398;87;20990;-62
2021/10/14 10:59:03;;;;;;;11.95;7.95;;;;;;;17.66;35.57;95000.14;1611999;87;21038;-59
2021/10/14 11:01:32;;;;;;;16.42;12.45;;;;;;;16.70;37.04;94986.56;1622164;88;21089;-60
2021/10/14 11:04:03;;;;;;;13.22;8.50;;;;;;;16.04;38.70;94989.52;1627002;87;21460;-61
2021/10/14 11:06:32;;;;;;;18.92;15.93;;;;;;;15.67;39.86;94991.05;1628196;87;21080;-61
2021/10/14 11:09:06;;;;;;;18.87;13.32;;;;;;;15.36;40.84;94988.51;1625420;87;21493;-59
2021/10/14 11:11:34;;;;;;;12.98;9.28;;;;;;;15.06;41.57;94990.95;1623538;86;21040;-62
2021/10/14 11:14:02;;;;;;;15.03;9.55;;;;;;;14.79;42.39;94993.86;1626344;87;21172;-62
2021/10/14 11:16:32;;;;;;;21.75;8.93;;;;;;;14.46;43.23;94985.49;1622749;87;21064;-60
2021/10/14 11:19:00;;;;;;;19.07;8.40;;;;;;;14.25;43.89;94994.03;1624964;87;20984;-60
2021/10/14 11:21:29;;;;;;;22.65;11.50;;;;;;;14.01;44.44;94988.19;1613805;87;21053;-60
2021/10/14 11:23:58;;;;;;;21.95;9.10;;;;;;;13.82;45.00;94995.72;1619737;87;21017;-59
2021/10/14 11:26:43;;;;;;;17.92;9.78;;;;;;;13.75;45.41;94995.26;1619842;88;21136;-62
2021/10/14 11:29:21;;;;;;;15.95;9.68;;;;;;;13.77;45.62;94985.28;1622291;87;21460;-60